Time;durP1;ratioP1;P1;durP2;ratioP2;P2;SDS_P1;SDS_P2;PMS_P1;PMS_P2;Temp;Humidity;BMP_temperature;BMP_pressure;BME280_temperature;BME280_humidity;BME280_pressure;Samples;Min_cycle;Max_cycle;Signal;HPM_P1;HPM_P2
2024/04/08 00:00:40;;;;;;;1.92;1.63;;;15.30;97.30;15.30;100309.00;;;;4985102;27;102617;-66
2024/04/08 00:03:05;;;;;;;2.88;1.50;;;15.30;97.50;15.30;100296.00;;;;4985054;27;91651;-66
2024/04/08 00:05:31;;;;;;;1.50;1.40;;;15.20;97.60;15.20;100300.00;;;;4975407;27;109938;-68
2024/04/08 00:07:57;;;;;;;1.15;1.08;;;15.20;97.80;15.20;100288.00;;;;4967571;27;107928;-66
2024/04/08 00:10:23;;;;;;;1.42;1.33;;;15.20;97.90;15.10;100294.00;;;;4968555;27;117628;-66
2024/04/08 00:12:48;;;;;;;2.05;1.40;;;15.10;98.00;15.10;100291.00;;;;4983887;27;117066;-67
2024/04/08 00:15:14;;;;;;;2.42;1.08;;;15.10;98.10;15.10;100290.00;;;;4983484;27;110880;-66
2024/04/08 00:17:44;;;;;;;2.08;1.88;;;15.10;98.30;15.10;100281.00;;;;4981442;27;108012;-66
2024/04/08 00:20:11;;;;;;;1.48;1.38;;;15.00;98.40;15.00;100279.00;;;;4974599;27;118888;-67
2024/04/08 00:22:39;;;;;;;1.73;1.58;;;15.00;98.50;15.00;100265.00;;;;4967032;28;87927;-67
2024/04/08 00:25:09;;;;;;;3.63;2.13;;;15.00;98.70;15.00;100273.00;;;;4965992;27;88118;-66
2024/04/08 00:27:35;;;;;;;1.83;1.60;;;15.00;98.80;15.00;100257.00;;;;4985032;27;88246;-66
2024/04/08 00:30:04;;;;;;;2.08;1.33;;;15.00;99.00;15.00;100258.00;;;;4986939;27;88736;-66
2024/04/08 00:32:30;;;;;;;1.55;1.45;;;14.90;99.00;14.90;100268.00;;;;4965599;27;89360;-67
2024/04/08 00:34:55;;;;;;;1.33;1.00;;;15.00;99.20;14.90;100262.00;;;;4983673;27;102411;-66
2024/04/08 00:37:21;;;;;;;2.28;1.65;;;14.90;99.30;14.90;100270.00;;;;4985581;27;108805;-66
2024/04/08 00:39:47;;;;;;;3.35;2.08;;;14.90;99.40;14.80;100271.00;;;;4984153;27;118762;-66
2024/04/08 00:42:13;;;;;;;3.33;1.10;;;14.80;99.60;14.80;100271.00;;;;4980211;27;117777;-66
2024/04/08 00:44:38;;;;;;;2.83;1.60;;;14.80;99.70;14.70;100255.00;;;;4985243;27;87787;-66
2024/04/08 00:47:04;;;;;;;2.88;1.63;;;14.70;99.90;14.70;100246.00;;;;4983882;27;109815;-66
2024/04/08 00:49:31;;;;;;;5.80;1.80;;;15.00;99.90;14.70;100251.00;;;;4964589;27;101630;-66
2024/04/08 00:51:57;;;;;;;1.80;1.58;;;14.70;99.90;14.70;100249.00;;;;4984737;27;119294;-66
2024/04/08 00:54:28;;;;;;;2.45;1.40;;;14.70;99.90;14.70;100255.00;;;;4968369;28;110924;-66
2024/04/08 00:56:56;;;;;;;1.10;1.00;;;14.70;99.90;14.70;100246.00;;;;4983477;27;107969;-66
2024/04/08 00:59:24;;;;;;;1.55;1.42;;;14.70;99.90;14.80;100248.00;;;;4962496;28;114065;-66
2024/04/08 01:01:50;;;;;;;2.40;1.50;;;14.80;99.90;14.80;100239.00;;;;4982086;27;117681;-66
2024/04/08 01:04:15;;;;;;;2.35;1.60;;;14.80;99.90;14.90;100249.00;;;;4984875;27;109470;-66
2024/04/08 01:06:42;;;;;;;1.48;1.38;;;14.80;99.90;14.90;100241.00;;;;4978679;27;109641;-68
2024/04/08 01:09:08;;;;;;;4.15;2.10;;;14.80;99.90;15.00;100240.00;;;;4983677;27;88889;-65
2024/04/08 01:11:35;;;;;;;2.38;1.23;;;14.90;99.90;15.00;100222.00;;;;4971689;27;88956;-66
2024/04/08 01:14:01;;;;;;;2.92;1.55;;;14.90;99.90;15.00;100210.00;;;;4983467;27;87911;-66
2024/04/08 01:16:26;;;;;;;2.03;1.60;;;14.90;99.90;15.00;100207.00;;;;4982439;27;108869;-66
2024/04/08 01:18:52;;;;;;;2.13;1.70;;;15.00;99.90;15.10;100193.00;;;;4980565;27;119355;-66
2024/04/08 01:21:18;;;;;;;2.72;1.48;;;15.00;99.90;15.10;100208.00;;;;4982603;27;118427;-67
2024/04/08 01:23:44;;;;;;;1.33;1.20;;;15.00;99.90;15.20;100198.00;;;;4982607;27;87726;-66
2024/04/08 01:26:10;;;;;;;2.20;1.35;;;15.10;99.90;15.20;100177.00;;;;4986147;27;96173;-66
2024/04/08 01:28:38;;;;;;;2.30;1.77;;;15.10;99.90;15.30;100152.00;;;;4983626;27;87932;-66
2024/04/08 01:31:04;;;;;;;1.27;1.17;;;15.20;99.90;15.30;100132.00;;;;4987134;27;88354;-66
2024/04/08 01:33:31;;;;;;;2.92;1.48;;;15.20;99.90;15.30;100157.00;;;;4984200;27;101763;-66
2024/04/08 01:36:04;;;;;;;2.75;1.17;;;15.20;99.90;15.30;100170.00;;;;4983539;27;87404;-66
2024/04/08 01:38:31;;;;;;;1.50;1.33;;;15.20;99.90;15.30;100163.00;;;;4981966;27;88998;-66
2024/04/08 01:40:57;;;;;;;5.03;1.48;;;15.30;99.90;15.30;100172.00;;;;4983005;27;88949;-66
2024/04/08 01:43:23;;;;;;;4.82;1.17;;;15.30;99.90;15.30;100200.00;;;;4982247;27;91551;-66
2024/04/08 01:45:52;;;;;;;1.52;1.30;;;15.30;99.90;15.30;100205.00;;;;4984732;27;100315;-67
2024/04/08 01:48:18;;;;;;;2.67;1.27;;;15.30;99.90;15.30;100211.00;;;;4984247;27;116298;-66
2024/04/08 01:50:44;;;;;;;3.45;0.95;;;15.30;99.90;15.30;100202.00;;;;4980114;27;118643;-67
2024/04/08 01:53:10;;;;;;;2.78;1.52;;;15.60;99.90;15.30;100208.00;;;;4986209;27;88053;-67
2024/04/08 01:55:37;;;;;;;1.33;1.23;;;15.30;99.90;15.30;100205.00;;;;4987619;27;110170;-67
2024/04/08 01:58:03;;;;;;;3.42;1.60;;;15.30;99.90;15.40;100213.00;;;;4984123;27;89459;-67
2024/04/08 02:00:28;;;;;;;2.65;1.50;;;15.30;99.90;15.30;100197.00;;;;4982974;27;88787;-67
2024/04/08 02:02:54;;;;;;;1.90;1.33;;;15.30;99.90;15.30;100185.00;;;;4984301;28;90756;-67
2024/04/08 02:05:20;;;;;;;1.00;1.00;;;15.30;99.90;15.30;100192.00;;;;4986281;27;107939;-68
2024/04/08 02:07:45;;;;;;;2.47;1.52;;;15.30;99.90;15.30;100178.00;;;;4963165;28;105589;-67
2024/04/08 02:10:11;;;;;;;5.15;1.77;;;15.30;99.90;15.30;100169.00;;;;4982084;27;116580;-66
2024/04/08 02:12:37;;;;;;;2.40;1.50;;;15.30;99.90;15.30;100161.00;;;;4982897;27;87823;-67
2024/04/08 02:15:04;;;;;;;2.10;1.40;;;15.20;99.90;15.20;100167.00;;;;4963712;28;108606;-66
2024/04/08 02:17:30;;;;;;;1.27;1.13;;;15.20;99.90;15.20;100183.00;;;;4980641;27;99587;-67
2024/04/08 02:19:56;;;;;;;1.80;1.65;;;15.20;99.90;15.20;100177.00;;;;4982731;27;117702;-67
2024/04/08 02:22:22;;;;;;;2.53;1.70;;;15.20;99.90;15.20;100175.00;;;;4982109;27;88233;-66
2024/04/08 02:24:48;;;;;;;1.83;1.60;;;15.20;99.90;15.20;100173.00;;;;4982442;27;107660;-67
2024/04/08 02:27:13;;;;;;;2.80;1.13;;;15.10;99.90;15.10;100176.00;;;;4985415;27;88404;-67
2024/04/08 02:29:39;;;;;;;2.35;1.73;;;15.10;99.90;15.10;100175.00;;;;4987646;27;88343;-67
2024/04/08 02:32:05;;;;;;;2.55;1.60;;;15.10;99.90;15.10;100174.00;;;;4984831;27;110503;-67
2024/04/08 02:34:31;;;;;;;3.30;1.70;;;15.10;99.90;15.10;100170.00;;;;4986594;27;88024;-67
2024/04/08 02:36:57;;;;;;;1.10;1.00;;;15.00;99.90;15.00;100167.00;;;;4984984;27;118774;-66
2024/04/08 02:39:22;;;;;;;2.00;1.70;;;15.00;99.90;15.00;100182.00;;;;4986394;27;118447;-66
2024/04/08 02:41:48;;;;;;;1.65;1.27;;;15.00;99.90;14.90;100169.00;;;;4985730;27;111717;-66
2024/04/08 02:44:14;;;;;;;1.73;1.33;;;14.90;99.90;14.90;100172.00;;;;4984973;27;109271;-67
2024/04/08 02:46:40;;;;;;;1.73;1.60;;;14.90;99.90;14.80;100160.00;;;;4987083;27;88788;-67
2024/04/08 02:49:05;;;;;;;1.52;1.38;;;14.80;99.90;14.70;100159.00;;;;4985516;27;116828;-67
2024/04/08 02:51:31;;;;;;;3.17;1.83;;;14.70;99.90;14.70;100156.00;;;;4983282;27;110517;-67
2024/04/08 02:53:56;;;;;;;2.20;1.55;;;14.70;99.90;14.60;100152.00;;;;4985789;27;108553;-67
2024/04/08 02:56:22;;;;;;;2.08;1.55;;;14.60;99.90;14.50;100148.00;;;;4985342;27;118670;-67
2024/04/08 02:58:48;;;;;;;2.47;1.73;;;14.50;99.90;14.50;100157.00;;;;4983037;27;119166;-67
2024/04/08 03:01:14;;;;;;;6.80;1.77;;;14.50;99.90;14.40;100149.00;;;;4986330;27;109305;-67
2024/04/08 03:03:41;;;;;;;1.38;1.27;;;14.40;99.90;14.30;100141.00;;;;4984788;27;92569;-67
2024/04/08 03:06:15;;;;;;;4.45;1.85;;;14.40;99.90;14.30;100140.00;;;;4986365;27;117885;-68
2024/04/08 03:08:42;;;;;;;1.88;1.55;;;14.30;99.90;14.20;100132.00;;;;4987612;27;87656;-67
2024/04/08 03:11:08;;;;;;;1.40;1.30;;;14.30;99.90;14.20;100136.00;;;;4987675;27;87958;-67
2024/04/08 03:13:36;;;;;;;3.67;1.73;;;14.20;99.90;14.10;100135.00;;;;4987239;27;99852;-66
2024/04/08 03:16:02;;;;;;;1.40;1.05;;;14.10;99.90;14.10;100130.00;;;;4988192;27;88437;-67
2024/04/08 03:18:28;;;;;;;1.48;1.38;;;14.10;99.90;14.00;100130.00;;;;4972252;28;93155;-67
2024/04/08 03:21:01;;;;;;;1.37;1.27;;;14.00;99.90;14.00;100136.00;;;;4981778;27;89674;-66
2024/04/08 03:23:27;;;;;;;1.60;1.50;;;14.00;99.90;13.90;100131.00;;;;4985417;27;87973;-66
2024/04/08 03:26:03;;;;;;;2.47;1.80;;;13.90;99.90;13.90;100135.00;;;;4984747;27;88929;-66
2024/04/08 03:28:29;;;;;;;1.98;1.73;;;13.90;99.90;13.90;100139.00;;;;4986035;27;87856;-67
2024/04/08 03:30:57;;;;;;;1.67;1.10;;;13.90;99.90;13.80;100128.00;;;;4983425;27;99451;-68
2024/04/08 03:33:25;;;;;;;1.73;1.40;;;13.90;99.90;13.80;100134.00;;;;4986939;27;88852;-67
2024/04/08 03:35:51;;;;;;;4.28;1.70;;;13.80;99.90;13.80;100132.00;;;;4987707;27;88030;-67
2024/04/08 03:38:17;;;;;;;2.65;1.80;;;13.80;99.90;13.70;100140.00;;;;4983000;27;88081;-67
2024/04/08 03:40:44;;;;;;;1.75;1.65;;;13.80;99.90;13.70;100143.00;;;;4987370;27;87958;-67
2024/04/08 03:43:10;;;;;;;3.22;1.88;;;13.70;99.90;13.70;100139.00;;;;4988087;27;89630;-68
2024/04/08 03:45:38;;;;;;;3.70;1.63;;;13.70;99.90;13.60;100132.00;;;;4984188;27;89546;-68
2024/04/08 03:48:05;;;;;;;2.28;1.63;;;13.60;99.90;13.60;100128.00;;;;4985389;27;89846;-67
2024/04/08 03:50:37;;;;;;;2.88;1.27;;;13.60;99.90;13.50;100135.00;;;;4986098;27;87944;-68
2024/04/08 03:53:03;;;;;;;2.53;1.40;;;13.60;99.90;13.50;100123.00;;;;4980243;27;87807;-67
2024/04/08 03:55:30;;;;;;;1.47;1.17;;;13.50;99.90;13.50;100111.00;;;;4988445;27;87885;-68
2024/04/08 03:57:57;;;;;;;3.63;1.80;;;13.50;99.90;13.40;100107.00;;;;4985208;27;88477;-68
2024/04/08 04:00:23;;;;;;;3.20;1.90;;;13.40;99.90;13.40;100115.00;;;;4983682;27;98386;-67
2024/04/08 04:02:49;;;;;;;2.13;1.90;;;13.40;99.90;13.40;100108.00;;;;4976432;27;87190;-68
2024/04/08 04:05:15;;;;;;;2.07;1.87;;;13.40;99.90;13.30;100115.00;;;;4982995;27;100182;-68
2024/04/08 04:07:40;;;;;;;1.67;1.20;;;13.30;99.90;13.30;100109.00;;;;4983536;27;116833;-68
2024/04/08 04:10:08;;;;;;;4.97;2.13;;;13.30;99.90;13.30;100107.00;;;;4982768;27;108794;-66
2024/04/08 04:12:38;;;;;;;1.90;1.80;;;13.30;99.90;13.30;100111.00;;;;4982074;27;88123;-66
2024/04/08 04:15:05;;;;;;;1.80;1.50;;;13.30;99.90;13.30;100110.00;;;;4983077;27;88935;-67
2024/04/08 04:17:31;;;;;;;1.40;1.23;;;13.30;99.90;13.30;100109.00;;;;4965734;28;88981;-67
2024/04/08 04:19:57;;;;;;;2.17;2.00;;;13.30;99.90;13.30;100096.00;;;;4987085;27;87759;-67
2024/04/08 04:22:23;;;;;;;2.50;1.77;;;13.30;99.90;13.30;100091.00;;;;4984385;27;94586;-67
2024/04/08 04:24:49;;;;;;;3.80;1.47;;;13.30;99.90;13.30;100097.00;;;;4966133;28;118806;-67
2024/04/08 04:27:14;;;;;;;2.13;1.27;;;13.30;99.90;13.30;100098.00;;;;4986126;27;117630;-67
2024/04/08 04:29:40;;;;;;;2.60;1.90;;;13.30;99.90;13.30;100093.00;;;;4983453;27;110772;-66
2024/04/08 04:32:07;;;;;;;2.00;1.60;;;13.30;99.90;13.30;100096.00;;;;4981911;27;108873;-66
2024/04/08 04:34:33;;;;;;;1.33;1.23;;;13.30;99.90;13.30;100100.00;;;;4977818;28;89998;-66
2024/04/08 04:36:59;;;;;;;2.40;1.27;;;13.50;99.90;13.30;100108.00;;;;4942295;28;112432;-66
2024/04/08 04:39:24;;;;;;;2.00;1.25;;;13.30;99.90;13.30;100102.00;;;;4951993;28;109778;-66
2024/04/08 04:41:50;;;;;;;1.48;1.35;;;13.30;99.90;13.40;100100.00;;;;4962426;28;108263;-66
2024/04/08 04:44:17;;;;;;;2.10;1.83;;;13.30;99.90;13.40;100113.00;;;;4959382;28;89000;-67
2024/04/08 04:46:42;;;;;;;2.90;1.50;;;13.40;99.90;13.40;100109.00;;;;4961207;28;89407;-67
2024/04/08 04:49:08;;;;;;;2.40;2.20;;;13.40;99.90;13.50;100111.00;;;;4958370;28;110264;-67
2024/04/08 04:51:33;;;;;;;2.03;1.83;;;13.50;99.90;13.50;100114.00;;;;4960185;28;109676;-68
2024/04/08 04:53:59;;;;;;;6.93;2.27;;;13.50;99.90;13.50;100118.00;;;;4958306;28;115825;-66
2024/04/08 04:56:25;;;;;;;6.63;1.60;;;13.50;99.90;13.50;100114.00;;;;4960791;28;116985;-67
2024/04/08 04:58:51;;;;;;;2.60;1.87;;;13.60;99.90;13.60;100111.00;;;;4957827;28;89873;-67
2024/04/08 05:01:17;;;;;;;2.20;1.97;;;13.60;99.90;13.60;100097.00;;;;4963460;28;87928;-66
2024/04/08 05:03:42;;;;;;;2.20;2.00;;;13.50;99.90;13.60;100102.00;;;;4961428;28;117647;-66
2024/04/08 05:06:08;;;;;;;1.80;1.70;;;13.60;99.90;13.70;100108.00;;;;4961089;28;118307;-67
2024/04/08 05:08:34;;;;;;;1.48;1.38;;;13.60;99.90;13.70;100103.00;;;;4959406;28;111178;-66
2024/04/08 05:11:00;;;;;;;1.40;1.15;;;13.60;99.90;13.70;100093.00;;;;4959879;28;108438;-67
2024/04/08 05:13:25;;;;;;;2.00;1.77;;;13.70;99.90;13.70;100092.00;;;;4961879;28;88659;-66
2024/04/08 05:16:02;;;;;;;5.97;1.85;;;13.70;99.90;13.70;100097.00;;;;4959702;28;117458;-68
2024/04/08 05:18:29;;;;;;;2.35;2.00;;;13.70;99.90;13.80;100101.00;;;;4962392;28;88183;-67
2024/04/08 05:20:58;;;;;;;5.03;1.95;;;13.80;99.90;13.80;100101.00;;;;4958991;28;102262;-68
2024/04/08 05:23:25;;;;;;;2.13;1.65;;;13.80;99.90;13.90;100104.00;;;;4957330;28;99539;-68
2024/04/08 05:25:55;;;;;;;2.45;2.10;;;13.80;99.90;13.90;100104.00;;;;4957166;28;89867;-67
2024/04/08 05:28:21;;;;;;;1.80;1.27;;;13.90;99.90;14.00;100114.00;;;;4962110;28;104052;-66
2024/04/08 05:30:48;;;;;;;5.47;2.20;;;13.90;99.90;14.00;100104.00;;;;4958912;28;102824;-67
2024/04/08 05:33:14;;;;;;;9.20;2.13;;;14.00;99.90;14.10;100113.00;;;;4962424;28;88326;-66
2024/04/08 05:35:41;;;;;;;2.38;2.10;;;14.00;99.90;14.20;100117.00;;;;4959705;28;102771;-66
2024/04/08 05:38:07;;;;;;;1.53;1.43;;;14.10;99.90;14.20;100104.00;;;;4957855;28;88249;-67
2024/04/08 05:40:37;;;;;;;2.33;1.35;;;14.10;99.90;14.20;100111.00;;;;4956007;28;108294;-67
2024/04/08 05:43:04;;;;;;;2.90;1.83;;;14.10;99.90;14.30;100109.00;;;;4959003;28;92169;-67
2024/04/08 05:45:31;;;;;;;5.40;1.80;;;14.20;99.90;14.40;100118.00;;;;4959794;28;88000;-67
2024/04/08 05:47:56;;;;;;;2.00;1.90;;;14.30;99.90;14.40;100129.00;;;;4958786;28;97928;-67
2024/04/08 05:50:23;;;;;;;2.17;2.03;;;14.30;99.90;14.50;100117.00;;;;4958363;28;106951;-67
2024/04/08 05:52:50;;;;;;;2.67;1.88;;;14.50;99.90;14.50;100114.00;;;;4960117;28;88214;-67
2024/04/08 05:55:16;;;;;;;3.75;1.67;;;14.40;99.90;14.60;100106.00;;;;4959200;28;88394;-67
2024/04/08 05:57:42;;;;;;;6.88;2.25;;;14.50;99.90;14.60;100108.00;;;;4960684;28;97850;-67
2024/04/08 06:00:10;;;;;;;2.38;2.00;;;14.60;99.90;14.70;100129.00;;;;4957125;28;107318;-67
2024/04/08 06:02:37;;;;;;;3.00;2.05;;;14.60;99.90;14.70;100123.00;;;;4956202;28;88305;-67
2024/04/08 06:05:03;;;;;;;2.80;2.00;;;14.60;99.90;14.70;100125.00;;;;4944096;28;94729;-67
2024/04/08 06:07:29;;;;;;;1.70;1.60;;;14.70;99.90;14.80;100122.00;;;;4959961;28;101365;-67
2024/04/08 06:09:55;;;;;;;2.50;1.90;;;14.70;99.90;14.80;100132.00;;;;4958698;28;87955;-67
2024/04/08 06:12:24;;;;;;;3.28;1.65;;;15.10;99.90;14.90;100117.00;;;;4944966;28;108885;-67
2024/04/08 06:14:50;;;;;;;2.88;2.00;;;14.80;99.90;14.90;100127.00;;;;4957498;28;119216;-67
2024/04/08 06:17:16;;;;;;;1.98;1.70;;;14.80;99.90;14.90;100109.00;;;;4961062;28;88238;-67
2024/04/08 06:19:42;;;;;;;1.95;1.48;;;14.90;99.90;15.00;100114.00;;;;4958518;28;92098;-67
2024/04/08 06:22:08;;;;;;;2.38;1.98;;;14.90;99.90;15.00;100120.00;;;;4959485;28;88143;-67
2024/04/08 06:24:34;;;;;;;3.60;2.17;;;14.90;99.90;15.10;100134.00;;;;4961428;28;95521;-67
2024/04/08 06:27:00;;;;;;;1.98;1.63;;;15.00;99.90;15.10;100135.00;;;;4962614;28;87926;-67
2024/04/08 06:29:26;;;;;;;2.92;2.13;;;15.00;99.90;15.20;100136.00;;;;4960536;28;87450;-67
2024/04/08 06:31:51;;;;;;;2.55;1.90;;;15.10;99.90;15.30;100128.00;;;;4957255;28;115533;-67
2024/04/08 06:34:17;;;;;;;2.35;1.73;;;15.20;99.90;15.50;100118.00;;;;4960419;28;113546;-67
2024/04/08 06:36:43;;;;;;;4.40;2.17;;;15.40;99.90;15.60;100128.00;;;;4960013;28;111050;-66
2024/04/08 06:39:09;;;;;;;2.83;1.80;;;15.50;99.90;15.90;100141.00;;;;4960838;28;108876;-68
2024/04/08 06:41:36;;;;;;;2.40;2.08;;;15.70;99.90;16.00;100150.00;;;;4961359;28;92564;-67
2024/04/08 06:44:02;;;;;;;3.15;2.20;;;15.90;99.90;16.30;100148.00;;;;4959588;28;88425;-67
2024/04/08 06:46:28;;;;;;;1.75;1.65;;;16.10;99.90;16.60;100151.00;;;;4962545;28;87842;-68
2024/04/08 06:48:54;;;;;;;1.70;1.45;;;16.40;99.90;16.80;100155.00;;;;4959953;28;87951;-67
2024/04/08 06:51:19;;;;;;;2.15;1.88;;;16.60;99.90;17.10;100156.00;;;;4958130;28;117191;-67
2024/04/08 06:53:45;;;;;;;2.65;1.60;;;16.80;99.90;17.30;100148.00;;;;4958946;28;118678;-67
2024/04/08 06:56:11;;;;;;;5.30;2.45;;;17.10;99.90;17.50;100153.00;;;;4958713;28;89064;-67
2024/04/08 06:58:36;;;;;;;3.15;1.92;;;17.30;99.90;17.80;100164.00;;;;4959433;28;108160;-67
2024/04/08 07:01:02;;;;;;;2.70;1.88;;;17.50;99.90;18.00;100162.00;;;;4959638;28;119271;-67
2024/04/08 07:03:28;;;;;;;2.28;1.73;;;17.80;99.90;18.30;100156.00;;;;4961916;28;111510;-67
2024/04/08 07:05:53;;;;;;;1.45;1.35;;;18.10;99.90;18.60;100159.00;;;;4959893;28;110431;-67
2024/04/08 07:08:19;;;;;;;6.60;2.10;;;18.40;99.90;18.90;100158.00;;;;4958023;28;109371;-67
2024/04/08 07:10:45;;;;;;;6.05;2.17;;;18.70;99.90;19.20;100163.00;;;;4959552;28;111975;-67
2024/04/08 07:13:12;;;;;;;3.10;2.08;;;19.00;99.90;19.50;100169.00;;;;4958506;28;89076;-67
2024/04/08 07:15:38;;;;;;;4.28;1.60;;;19.20;99.90;19.80;100161.00;;;;4947085;28;88167;-67
2024/04/08 07:18:04;;;;;;;3.67;1.85;;;19.60;99.90;20.20;100162.00;;;;4963350;28;87391;-67
2024/04/08 07:20:32;;;;;;;2.05;1.75;;;19.80;99.90;20.50;100172.00;;;;4966452;28;88196;-67
2024/04/08 07:22:58;;;;;;;2.72;1.98;;;20.20;99.90;20.80;100170.00;;;;4962387;28;89315;-67
2024/04/08 07:25:23;;;;;;;1.63;1.52;;;20.50;99.90;21.10;100172.00;;;;4962738;28;109671;-67
2024/04/08 07:27:49;;;;;;;4.78;1.80;;;20.80;99.90;21.40;100161.00;;;;4959920;28;106658;-67
2024/04/08 07:30:15;;;;;;;3.13;1.35;;;21.10;99.90;21.70;100161.00;;;;4960623;28;118127;-67
2024/04/08 07:32:41;;;;;;;3.20;1.40;;;21.40;99.90;21.90;100162.00;;;;4959326;28;106701;-68
2024/04/08 07:35:07;;;;;;;3.95;1.85;;;21.70;99.90;22.20;100156.00;;;;4961604;28;88564;-67
2024/04/08 07:37:33;;;;;;;1.88;1.60;;;22.00;99.40;22.50;100161.00;;;;4960074;28;88300;-67
2024/04/08 07:39:59;;;;;;;1.45;1.13;;;22.30;98.80;22.80;100167.00;;;;4957897;28;88263;-68
2024/04/08 07:42:24;;;;;;;2.45;1.55;;;22.60;98.20;23.00;100164.00;;;;4965279;28;87685;-67
2024/04/08 07:44:51;;;;;;;3.35;1.73;;;22.80;97.50;23.30;100168.00;;;;4965822;28;109808;-68
2024/04/08 07:47:17;;;;;;;4.03;1.65;;;23.00;96.60;23.50;100175.00;;;;4962909;28;88175;-67
2024/04/08 07:49:47;;;;;;;3.85;1.85;;;23.30;96.10;23.80;100179.00;;;;4961634;28;120408;-67
2024/04/08 07:52:13;;;;;;;3.78;1.45;;;23.50;95.60;24.00;100175.00;;;;4964525;28;87864;-67
2024/04/08 07:54:39;;;;;;;4.30;2.58;;;23.80;94.80;24.30;100171.00;;;;4961126;28;87945;-68
2024/04/08 07:57:06;;;;;;;2.33;1.20;;;24.00;94.10;24.50;100182.00;;;;4940157;28;102322;-67
2024/04/08 07:59:32;;;;;;;5.40;1.70;;;24.30;93.10;24.80;100178.00;;;;4961881;28;88958;-67
2024/04/08 08:01:58;;;;;;;3.70;1.88;;;24.50;92.30;24.90;100180.00;;;;4961349;28;88097;-68
2024/04/08 08:04:24;;;;;;;2.78;1.58;;;24.70;91.70;25.00;100167.00;;;;4940453;28;100476;-67
2024/04/08 08:06:49;;;;;;;12.23;1.95;;;24.80;90.60;25.20;100174.00;;;;4964650;28;86933;-68
2024/04/08 08:09:15;;;;;;;6.32;2.25;;;25.00;89.80;25.30;100176.00;;;;4959830;28;116644;-68
2024/04/08 08:11:40;;;;;;;2.47;1.38;;;25.10;89.20;25.50;100176.00;;;;4960518;28;108238;-67
2024/04/08 08:14:06;;;;;;;3.38;1.35;;;25.30;88.70;25.70;100172.00;;;;4956374;28;110156;-67
2024/04/08 08:16:32;;;;;;;2.40;1.42;;;25.50;88.00;26.10;100175.00;;;;4946381;28;107156;-66
2024/04/08 08:18:58;;;;;;;2.85;1.92;;;25.80;87.20;26.40;100182.00;;;;4959521;28;108810;-66
2024/04/08 08:21:23;;;;;;;1.05;1.00;;;26.00;85.70;26.70;100181.00;;;;4959857;28;116668;-67
2024/04/08 08:23:49;;;;;;;1.23;1.13;;;26.40;84.30;26.90;100177.00;;;;4961148;28;110129;-67
2024/04/08 08:26:14;;;;;;;3.65;1.80;;;26.60;82.30;27.10;100174.00;;;;4940554;28;106996;-66
2024/04/08 08:28:40;;;;;;;2.08;1.27;;;26.80;78.00;27.30;100177.00;;;;4960489;28;115774;-66
2024/04/08 08:31:06;;;;;;;3.05;1.40;;;26.90;77.10;27.40;100165.00;;;;4962284;28;88068;-66
2024/04/08 08:33:32;;;;;;;6.65;1.85;;;27.10;76.20;27.60;100165.00;;;;4960120;28;111579;-66
2024/04/08 08:35:57;;;;;;;3.85;1.83;;;27.30;73.60;27.70;100164.00;;;;4959358;28;108910;-66
2024/04/08 08:38:23;;;;;;;3.60;1.38;;;27.40;70.30;27.70;100152.00;;;;4961875;28;118005;-67
2024/04/08 08:40:54;;;;;;;2.10;1.40;;;27.50;65.90;27.70;100148.00;;;;4961060;28;115756;-67
2024/04/08 08:43:29;;;;;;;4.53;1.20;;;27.50;63.40;27.70;100154.00;;;;4943594;28;88631;-67
2024/04/08 08:45:55;;;;;;;3.63;1.45;;;27.50;62.90;27.80;100152.00;;;;4959428;28;88247;-68
2024/04/08 08:48:21;;;;;;;4.40;1.52;;;27.50;60.10;27.80;100150.00;;;;4959365;28;89147;-66
2024/04/08 08:50:48;;;;;;;3.22;1.48;;;27.60;59.30;27.90;100148.00;;;;4959393;28;117211;-67
2024/04/08 08:53:15;;;;;;;5.07;1.63;;;27.60;58.80;27.90;100146.00;;;;4961584;28;90416;-67
2024/04/08 08:55:40;;;;;;;1.95;1.55;;;27.80;59.10;28.10;100147.00;;;;4960102;28;87035;-68
2024/04/08 08:58:09;;;;;;;9.65;2.03;;;27.80;58.30;28.20;100149.00;;;;4958472;28;116868;-68
2024/04/08 09:00:38;;;;;;;3.15;1.35;;;27.90;56.90;28.20;100147.00;;;;4961008;28;88163;-68
2024/04/08 09:03:05;;;;;;;3.78;2.05;;;28.00;55.70;28.20;100160.00;;;;4962522;28;88887;-69
2024/04/08 09:05:31;;;;;;;2.22;1.23;;;28.00;54.40;28.30;100144.00;;;;4961927;28;88128;-69
2024/04/08 09:07:56;;;;;;;4.35;1.30;;;28.00;54.40;28.40;100149.00;;;;4959782;28;89330;-68
2024/04/08 09:10:26;;;;;;;4.15;1.17;;;28.00;53.50;28.50;100145.00;;;;4960729;28;116548;-68
2024/04/08 09:12:52;;;;;;;5.80;1.02;;;28.10;52.90;28.60;100143.00;;;;4942298;28;88147;-69
2024/04/08 09:15:18;;;;;;;1.55;0.90;;;28.30;51.80;28.70;100142.00;;;;4961008;28;88543;-69
2024/04/08 09:17:44;;;;;;;2.30;1.63;;;28.30;49.90;28.70;100150.00;;;;4944208;28;88061;-69
2024/04/08 09:20:11;;;;;;;5.50;2.67;;;28.30;50.50;28.70;100159.00;;;;4958084;28;116738;-69
2024/04/08 09:22:37;;;;;;;8.27;1.65;;;28.40;51.10;28.80;100164.00;;;;4960043;28;88175;-69
2024/04/08 09:25:02;;;;;;;3.65;2.80;;;28.50;51.00;28.90;100151.00;;;;4959435;28;108252;-67
2024/04/08 09:27:28;;;;;;;1.50;0.95;;;28.60;50.40;29.10;100153.00;;;;4961494;28;90107;-68
2024/04/08 09:29:54;;;;;;;1.95;0.98;;;28.70;49.20;29.10;100153.00;;;;4959589;28;117002;-68
2024/04/08 09:32:20;;;;;;;3.88;2.00;;;28.80;48.60;29.20;100150.00;;;;4959207;28;110468;-69
2024/04/08 09:34:45;;;;;;;3.33;1.25;;;28.80;47.60;29.30;100147.00;;;;4960254;28;108414;-69
2024/04/08 09:37:13;;;;;;;5.55;1.48;;;28.90;48.30;29.40;100139.00;;;;4957671;28;116749;-68
2024/04/08 09:39:40;;;;;;;1.00;0.85;;;29.00;48.40;29.60;100125.00;;;;4959460;28;88850;-68
2024/04/08 09:42:10;;;;;;;4.95;1.13;;;29.20;47.10;29.60;100121.00;;;;4958813;28;88209;-69
2024/04/08 09:44:37;;;;;;;3.08;1.65;;;29.20;46.80;29.80;100112.00;;;;4943209;28;87349;-69
2024/04/08 09:47:03;;;;;;;5.38;1.23;;;29.30;46.30;30.00;100118.00;;;;4958898;28;98083;-69
2024/04/08 09:49:30;;;;;;;1.88;1.42;;;29.50;46.50;30.10;100123.00;;;;4962506;28;98399;-67
2024/04/08 09:51:56;;;;;;;1.45;1.30;;;29.70;46.00;30.20;100122.00;;;;4959727;28;88833;-68
2024/04/08 09:54:22;;;;;;;3.20;1.77;;;29.80;45.90;30.20;100122.00;;;;4958289;28;109369;-68
2024/04/08 09:56:50;;;;;;;13.32;4.82;;;29.80;45.70;30.20;100123.00;;;;4958694;28;117724;-68
2024/04/08 09:59:20;;;;;;;5.28;1.65;;;29.80;46.80;30.30;100123.00;;;;4958701;28;95718;-68
2024/04/08 10:01:47;;;;;;;6.95;1.75;;;29.90;46.10;30.30;100112.00;;;;4957156;28;87770;-68
2024/04/08 10:04:19;;;;;;;4.75;1.30;;;29.90;46.00;30.40;100117.00;;;;4957746;28;103243;-67
2024/04/08 10:06:46;;;;;;;3.38;1.60;;;29.90;45.90;30.30;100121.00;;;;4961919;28;88217;-69
2024/04/08 10:09:12;;;;;;;6.18;1.85;;;29.90;45.20;30.20;100119.00;;;;4939944;28;88064;-68
2024/04/08 10:11:38;;;;;;;3.15;2.38;;;29.90;44.50;30.00;100112.00;;;;4957230;28;95335;-69
2024/04/08 10:14:15;;;;;;;2.40;1.60;;;29.70;43.70;29.80;100117.00;;;;4958790;28;95371;-68
2024/04/08 10:16:41;;;;;;;5.57;1.10;;;29.60;44.10;29.80;100110.00;;;;4959547;28;97341;-68
2024/04/08 10:19:10;;;;;;;3.95;1.02;;;29.50;44.40;29.70;100104.00;;;;4937955;28;117015;-68
2024/04/08 10:21:38;;;;;;;1.50;1.38;;;29.40;45.00;29.60;100113.00;;;;4958213;28;89040;-68
2024/04/08 10:24:04;;;;;;;2.35;1.25;;;29.30;45.50;29.50;100119.00;;;;4958615;28;88060;-68
2024/04/08 10:26:34;;;;;;;1.50;1.35;;;29.20;46.20;29.30;100112.00;;;;4938376;28;100594;-68
2024/04/08 10:29:00;;;;;;;10.02;1.40;;;29.10;46.50;29.10;100101.00;;;;4960853;28;88899;-68
2024/04/08 10:31:30;;;;;;;3.45;1.65;;;28.80;47.00;28.90;100092.00;;;;4960000;28;110010;-68
2024/04/08 10:33:59;;;;;;;3.47;1.02;;;28.70;47.30;28.80;100090.00;;;;4959991;28;88143;-68
2024/04/08 10:36:26;;;;;;;1.85;1.17;;;28.50;47.90;28.70;100091.00;;;;4940302;28;89023;-68
2024/04/08 10:38:52;;;;;;;6.43;1.67;;;28.50;47.90;28.60;100090.00;;;;4960642;28;87753;-67